Decoded Metar for KPGV (PITT GREENVILLE in NC, USA) (IATA:PGV) | Meteo·Mobile Aviation Weather
aviador You're here:

KPGV Decoded Metar

PITT GREENVILLE in NC, USA
Report Time2019-01-17 22:55:00
UTC Time2019-01-17 22:55:55
Flight Rules vfr VFR
WindCalm
Visibility9999 m
Phenomena:N/A
Clouds:N/A
Expected CloudBase > 2,000 ft AGL from Temp-Dew spread
CeilingNone
Temp07°C (ISA -8)
Dew Point02°C (71% RH)
AAT5.3°C
QNH1023 hPa
Density Alt-1,171 ft
Elevation26 ft
Report Wrong Elevation
Raw Report
KPGV 172255Z AUTO 00000KT 10SM CLR 07/02 A3022 RMK AO2=

Extra information for KPGV:More info

Metar Taf Metar & Taf Last 4 Metars F.Rules Stats Wind Profile Meteogram Temp Stats Airport Information Weather charts Add Link Nearby VenuesMetar ALERT Operation Metar Decoded Social comments

AIRNAV info for KPGV